Aviation Digital Data Service (ADDS)

Output produced by TAFs form (1606 UTC 25 April 2018)
found at http://aviationweather.gov/adds/tafs/
 
KDEN 251553Z 22007KT 10SM CLR 07/M02 A3032 RMK AO2 SLP258 T00671017
KDEN 251447Z 2515/2618 20007KT P6SM SKC 
     FM251700 VRB05KT P6SM SKC 
     FM251900 06008KT P6SM SKC 
     FM260100 14006KT P6SM SKC 
     FM260300 18007KT P6SM SCT250 
     FM260700 29006KT P6SM SCT100 
     FM260800 35017G27KT P6SM SCT100 
     FM261200 35016G23KT P6SM BKN030 BKN100